Time;durP1;ratioP1;P1;durP2;ratioP2;P2;SDS_P1;SDS_P2;PMS_P1;PMS_P2;Temp;Humidity;BMP_temperature;BMP_pressure;BME280_temperature;BME280_humidity;BME280_pressure;Samples;Min_cycle;Max_cycle;Signal;HPM_P1;HPM_P2
2023/09/02 00:01:45;;;;;;;7.03;5.03;;;12.20;90.40;;;;;;5049006;28;20135;-44
2023/09/02 00:04:13;;;;;;;6.57;5.75;;;12.10;90.40;;;;;;5031055;28;20409;-44
2023/09/02 00:06:39;;;;;;;6.15;5.22;;;12.10;90.50;;;;;;5031255;28;20017;-47
2023/09/02 00:09:06;;;;;;;7.43;6.35;;;12.10;90.60;;;;;;5030960;28;20032;-48
2023/09/02 00:11:34;;;;;;;7.65;6.38;;;12.00;90.50;;;;;;5051155;28;20318;-43
2023/09/02 00:14:00;;;;;;;10.60;6.75;;;12.10;90.60;;;;;;5070973;28;20024;-47
2023/09/02 00:16:27;;;;;;;6.00;5.00;;;12.00;90.40;;;;;;5065017;28;20161;-44
2023/09/02 00:18:54;;;;;;;7.55;6.32;;;12.00;90.50;;;;;;5041525;28;20032;-46
2023/09/02 00:21:21;;;;;;;7.10;5.72;;;11.90;90.40;;;;;;5042275;28;20472;-44
2023/09/02 00:23:48;;;;;;;6.40;5.13;;;11.90;90.50;;;;;;5036659;28;20059;-46
2023/09/02 00:26:15;;;;;;;5.55;4.95;;;12.00;90.40;;;;;;5055033;28;20064;-46
2023/09/02 00:28:40;;;;;;;7.40;6.50;;;11.90;90.40;;;;;;5044096;28;20032;-44
2023/09/02 00:31:07;;;;;;;6.10;4.97;;;11.90;90.40;;;;;;5066534;28;20024;-45
2023/09/02 00:33:33;;;;;;;5.68;4.78;;;11.90;90.30;;;;;;5050483;28;20426;-46
2023/09/02 00:36:01;;;;;;;5.60;4.60;;;11.90;90.20;;;;;;5057412;28;20048;-43
2023/09/02 00:38:27;;;;;;;6.30;4.90;;;11.90;90.50;;;;;;5050183;28;20100;-43
2023/09/02 00:41:02;;;;;;;7.43;6.03;;;11.90;90.40;;;;;;5056468;28;20139;-44
2023/09/02 00:43:32;;;;;;;5.80;4.97;;;11.90;90.40;;;;;;5044997;28;20040;-44
2023/09/02 00:46:00;;;;;;;7.13;5.40;;;11.90;90.60;;;;;;5050866;28;20028;-47
2023/09/02 00:48:25;;;;;;;12.82;6.60;;;11.90;90.60;;;;;;5069870;28;20054;-49
2023/09/02 00:50:54;;;;;;;6.95;5.72;;;11.90;90.80;;;;;;5044639;28;20421;-49
2023/09/02 00:53:24;;;;;;;7.88;6.40;;;11.90;90.80;;;;;;5070986;28;20043;-45
2023/09/02 00:55:53;;;;;;;9.20;6.47;;;11.90;90.80;;;;;;5054195;28;20441;-44
2023/09/02 00:58:25;;;;;;;6.57;5.63;;;11.90;90.70;;;;;;5006082;28;20576;-44
2023/09/02 01:00:52;;;;;;;7.95;7.05;;;11.90;90.60;;;;;;5033426;28;20032;-47
2023/09/02 01:03:19;;;;;;;8.57;6.88;;;11.90;90.40;;;;;;5030998;28;20104;-45
2023/09/02 01:05:47;;;;;;;8.15;7.00;;;11.80;90.40;;;;;;5030839;28;20026;-44
2023/09/02 01:08:21;;;;;;;9.35;6.97;;;11.80;90.40;;;;;;5030731;28;20078;-45
2023/09/02 01:10:52;;;;;;;8.88;6.45;;;11.80;90.60;;;;;;5036749;28;20025;-47
2023/09/02 01:13:23;;;;;;;7.68;5.90;;;11.80;90.60;;;;;;5066710;28;20043;-45
2023/09/02 01:15:54;;;;;;;6.90;5.70;;;11.80;90.60;;;;;;5042914;28;20174;-45
2023/09/02 01:18:25;;;;;;;7.78;6.45;;;11.80;90.80;;;;;;5066358;28;20036;-47
2023/09/02 01:21:19;;;;;;;7.72;5.60;;;11.80;90.80;;;;;;5032874;28;20457;-44
2023/09/02 01:24:09;;;;;;;7.47;5.97;;;11.80;90.80;;;;;;5030516;28;20643;-47
2023/09/02 01:27:05;;;;;;;6.68;5.30;;;11.80;90.70;;;;;;5030489;28;20377;-44
2023/09/02 01:29:43;;;;;;;7.78;6.40;;;11.70;90.50;;;;;;5048495;28;20486;-43
2023/09/02 01:32:17;;;;;;;8.57;5.50;;;11.70;90.50;;;;;;5041742;28;20079;-44
2023/09/02 01:34:55;;;;;;;7.43;6.25;;;11.70;90.50;;;;;;5029211;28;20163;-44
2023/09/02 01:37:22;;;;;;;16.48;6.25;;;11.60;90.40;;;;;;5030536;28;20527;-46
2023/09/02 01:39:51;;;;;;;8.48;6.95;;;11.60;90.50;;;;;;5045692;28;20056;-48
2023/09/02 01:42:19;;;;;;;10.02;7.80;;;11.60;90.40;;;;;;5042253;28;20050;-46
2023/09/02 01:44:47;;;;;;;9.05;7.15;;;11.60;90.40;;;;;;5034028;28;20107;-43
2023/09/02 01:47:16;;;;;;;7.78;6.95;;;11.60;90.50;;;;;;5065582;28;20032;-43
2023/09/02 01:49:47;;;;;;;7.68;6.38;;;11.50;90.40;;;;;;5040538;28;20069;-44
2023/09/02 01:52:18;;;;;;;9.52;6.75;;;11.50;90.40;;;;;;5058319;28;20040;-44
2023/09/02 01:54:47;;;;;;;7.35;6.55;;;11.50;90.40;;;;;;5056578;28;20024;-44
2023/09/02 01:57:14;;;;;;;8.68;7.20;;;11.50;90.40;;;;;;5055801;28;20025;-46
2023/09/02 01:59:42;;;;;;;7.93;7.05;;;11.50;90.30;;;;;;5038332;28;20475;-45
2023/09/02 02:02:16;;;;;;;8.00;6.60;;;11.50;90.30;;;;;;5049778;28;20033;-44
2023/09/02 02:04:51;;;;;;;7.72;6.60;;;11.40;90.40;;;;;;5047600;28;20116;-44
2023/09/02 02:07:21;;;;;;;7.65;6.40;;;11.40;90.40;;;;;;5041111;28;20028;-42
2023/09/02 02:09:57;;;;;;;10.68;5.97;;;11.40;90.30;;;;;;5055863;28;20028;-44
2023/09/02 02:12:25;;;;;;;7.90;6.10;;;11.40;90.50;;;;;;5037046;28;20132;-47
2023/09/02 02:14:56;;;;;;;11.43;5.78;;;11.40;90.70;;;;;;5051387;28;20026;-44
2023/09/02 02:17:23;;;;;;;7.13;5.57;;;11.40;90.90;;;;;;5070522;28;20055;-42
2023/09/02 02:19:49;;;;;;;7.05;6.07;;;11.40;90.80;;;;;;5070284;28;20060;-45
2023/09/02 02:22:16;;;;;;;8.05;6.60;;;11.40;90.50;;;;;;5042993;28;20060;-43
2023/09/02 02:24:43;;;;;;;7.57;6.10;;;11.40;90.60;;;;;;5056055;28;20022;-45
2023/09/02 02:27:10;;;;;;;8.32;7.10;;;11.40;90.70;;;;;;5033537;28;20056;-46
2023/09/02 02:29:37;;;;;;;7.53;6.72;;;11.30;90.80;;;;;;5044473;28;20028;-44
2023/09/02 02:32:03;;;;;;;8.20;7.25;;;11.30;90.90;;;;;;5043897;28;20430;-43
2023/09/02 02:34:28;;;;;;;7.63;6.10;;;11.30;91.00;;;;;;5058318;28;20067;-45
2023/09/02 02:36:57;;;;;;;9.07;6.40;;;11.40;91.00;;;;;;5055612;28;20066;-45
2023/09/02 02:39:25;;;;;;;7.95;6.95;;;11.40;91.10;;;;;;5069078;28;20032;-46
2023/09/02 02:41:52;;;;;;;8.65;7.60;;;11.40;91.00;;;;;;5057272;28;20119;-43
2023/09/02 02:44:21;;;;;;;8.27;7.43;;;11.40;91.20;;;;;;5073344;28;20029;-43
2023/09/02 02:46:49;;;;;;;8.77;7.70;;;11.40;91.20;;;;;;5069208;28;20029;-43
2023/09/02 02:49:16;;;;;;;8.20;7.40;;;11.40;91.10;;;;;;5048915;28;20563;-45
2023/09/02 02:51:42;;;;;;;8.52;7.22;;;11.40;91.30;;;;;;5037526;28;20021;-43
2023/09/02 02:54:10;;;;;;;7.80;6.97;;;11.40;91.20;;;;;;5072546;28;20391;-43
2023/09/02 02:56:37;;;;;;;8.85;6.88;;;11.40;91.20;;;;;;5048605;28;20048;-45
2023/09/02 02:59:02;;;;;;;6.97;6.22;;;11.30;91.10;;;;;;5058731;28;20090;-47
2023/09/02 03:01:30;;;;;;;7.97;5.85;;;11.30;91.20;;;;;;5059831;28;20026;-45
2023/09/02 03:03:58;;;;;;;6.65;5.47;;;11.30;91.40;;;;;;5052204;28;20021;-42
2023/09/02 03:06:25;;;;;;;6.75;5.68;;;11.30;91.30;;;;;;5052927;28;20036;-42
2023/09/02 03:08:53;;;;;;;6.50;5.80;;;11.30;91.30;;;;;;5043505;28;20024;-44
2023/09/02 03:11:29;;;;;;;7.28;5.47;;;11.30;91.10;;;;;;5071118;28;20029;-45
2023/09/02 03:13:59;;;;;;;6.03;5.28;;;11.30;91.10;;;;;;5049433;28;20064;-44
2023/09/02 03:16:26;;;;;;;7.45;5.72;;;11.30;91.10;;;;;;5051523;28;20064;-43
2023/09/02 03:18:55;;;;;;;5.72;4.75;;;11.20;91.00;;;;;;5059872;28;20110;-43
2023/09/02 03:21:22;;;;;;;7.25;5.10;;;11.20;90.90;;;;;;5068318;28;20049;-43
2023/09/02 03:23:51;;;;;;;7.00;4.90;;;11.20;90.90;;;;;;5052568;28;20025;-46
2023/09/02 03:26:19;;;;;;;5.67;4.83;;;11.20;90.90;;;;;;5052765;28;20105;-44
2023/09/02 03:28:48;;;;;;;6.78;5.43;;;11.20;91.10;;;;;;5019115;28;20052;-46
2023/09/02 03:31:15;;;;;;;6.05;4.93;;;11.20;91.20;;;;;;5030480;28;20040;-46
2023/09/02 03:33:44;;;;;;;7.10;5.13;;;11.20;91.40;;;;;;5044703;28;20044;-45
2023/09/02 03:36:20;;;;;;;5.82;4.63;;;11.30;91.40;;;;;;5032039;28;20087;-44
2023/09/02 03:38:48;;;;;;;8.15;5.13;;;11.30;91.30;;;;;;5032326;28;20030;-45
2023/09/02 03:41:20;;;;;;;5.97;4.88;;;11.30;91.20;;;;;;5027616;28;20140;-47
2023/09/02 03:43:49;;;;;;;6.60;5.07;;;11.20;90.90;;;;;;5033098;28;20045;-44
2023/09/02 03:46:15;;;;;;;6.35;5.00;;;11.20;90.90;;;;;;5053514;28;20028;-44
2023/09/02 03:48:41;;;;;;;6.65;5.43;;;11.10;90.90;;;;;;5047212;28;20079;-43
2023/09/02 03:51:12;;;;;;;6.55;5.05;;;11.10;90.80;;;;;;5053919;28;20123;-47
2023/09/02 03:53:42;;;;;;;5.38;4.68;;;11.10;90.70;;;;;;5048898;28;20044;-45
2023/09/02 03:56:11;;;;;;;6.15;4.90;;;11.10;90.80;;;;;;5068882;28;20032;-46
2023/09/02 03:58:39;;;;;;;6.47;5.32;;;11.00;90.70;;;;;;5041956;28;20032;-43
2023/09/02 04:01:07;;;;;;;6.45;5.10;;;11.00;90.70;;;;;;5004748;28;20029;-42
2023/09/02 04:03:35;;;;;;;5.30;4.43;;;11.00;91.00;;;;;;5031283;28;20064;-44
2023/09/02 04:06:01;;;;;;;7.45;5.63;;;11.00;90.90;;;;;;5043358;28;20036;-45
2023/09/02 04:08:33;;;;;;;7.22;4.57;;;11.00;90.90;;;;;;5053427;28;20326;-42
2023/09/02 04:11:02;;;;;;;5.30;4.38;;;11.00;90.90;;;;;;5052801;28;20454;-48
2023/09/02 04:13:30;;;;;;;7.20;5.70;;;11.00;90.90;;;;;;5003360;28;20094;-46
2023/09/02 04:15:57;;;;;;;7.43;5.22;;;11.00;90.80;;;;;;5019033;28;20032;-44
2023/09/02 04:18:23;;;;;;;9.68;5.80;;;10.90;90.80;;;;;;5031755;28;20033;-48
2023/09/02 04:20:51;;;;;;;7.30;4.80;;;10.90;90.90;;;;;;5032915;28;20017;-44
2023/09/02 04:23:18;;;;;;;6.32;5.38;;;10.90;91.00;;;;;;5049039;28;20029;-44
2023/09/02 04:25:54;;;;;;;6.72;5.38;;;10.90;91.00;;;;;;5048399;28;20025;-45
2023/09/02 04:28:22;;;;;;;8.88;6.28;;;10.90;91.20;;;;;;5048236;28;20711;-48
2023/09/02 04:31:02;;;;;;;7.43;5.82;;;11.00;91.20;;;;;;5043886;28;20498;-44
2023/09/02 04:33:38;;;;;;;7.05;5.43;;;11.00;91.40;;;;;;5048537;28;20069;-45
2023/09/02 04:36:06;;;;;;;8.30;5.97;;;10.90;91.10;;;;;;5047005;28;20043;-48
2023/09/02 04:38:33;;;;;;;7.82;6.07;;;10.90;91.10;;;;;;5033205;28;20033;-45
2023/09/02 04:41:06;;;;;;;7.25;5.70;;;10.90;91.20;;;;;;5020663;28;20482;-46
2023/09/02 04:43:45;;;;;;;7.30;5.60;;;10.90;91.30;;;;;;5019670;28;20067;-43
2023/09/02 04:46:13;;;;;;;6.53;5.75;;;10.90;91.30;;;;;;5066850;28;20052;-44
2023/09/02 04:48:42;;;;;;;6.47;5.60;;;10.90;91.30;;;;;;5036483;28;20029;-47
2023/09/02 04:51:09;;;;;;;9.20;7.05;;;10.90;91.20;;;;;;5049710;28;20036;-42
2023/09/02 04:53:42;;;;;;;11.30;6.57;;;10.90;91.20;;;;;;5046101;28;20031;-44
2023/09/02 04:56:12;;;;;;;8.48;7.00;;;10.90;91.10;;;;;;5047368;28;20032;-42
2023/09/02 04:58:39;;;;;;;6.35;5.65;;;10.90;91.30;;;;;;5030337;28;20112;-46
2023/09/02 05:01:15;;;;;;;8.25;6.18;;;10.90;91.30;;;;;;5051373;28;20060;-49
2023/09/02 05:03:42;;;;;;;7.18;6.13;;;11.00;91.30;;;;;;5070842;28;20035;-44
2023/09/02 05:06:10;;;;;;;5.85;5.07;;;11.00;91.20;;;;;;5071196;28;20402;-45
2023/09/02 05:08:38;;;;;;;8.18;6.07;;;11.00;91.30;;;;;;5052031;28;20033;-43
2023/09/02 05:11:07;;;;;;;7.70;5.95;;;11.00;91.30;;;;;;5051538;28;20016;-45
2023/09/02 05:13:37;;;;;;;8.02;6.30;;;11.00;91.40;;;;;;5030996;28;20025;-46
2023/09/02 05:16:05;;;;;;;12.77;7.32;;;11.00;91.40;;;;;;5059704;28;20082;-43
2023/09/02 05:18:31;;;;;;;8.25;7.00;;;11.10;91.40;;;;;;5070715;28;20044;-42
2023/09/02 05:20:56;;;;;;;8.88;6.63;;;11.10;91.50;;;;;;5051981;28;20110;-42
2023/09/02 05:23:25;;;;;;;8.18;6.93;;;11.10;91.50;;;;;;5030963;28;20057;-44
2023/09/02 05:25:57;;;;;;;8.52;7.13;;;11.10;91.40;;;;;;5058916;28;20396;-43
2023/09/02 05:28:26;;;;;;;8.63;7.07;;;11.20;91.40;;;;;;5060665;28;20027;-42
2023/09/02 05:30:51;;;;;;;7.78;6.65;;;11.20;91.60;;;;;;5051559;28;20811;-45
2023/09/02 05:33:18;;;;;;;7.35;6.40;;;11.20;91.80;;;;;;5035696;28;20108;-46
2023/09/02 05:35:44;;;;;;;9.10;7.93;;;11.30;91.80;;;;;;5043367;28;20095;-43
2023/09/02 05:38:12;;;;;;;7.93;6.95;;;11.30;91.70;;;;;;5062613;28;20024;-45
2023/09/02 05:40:43;;;;;;;12.63;5.88;;;11.40;91.90;;;;;;5056744;28;20041;-43
2023/09/02 05:43:10;;;;;;;9.00;6.70;;;11.40;91.70;;;;;;5032544;28;20021;-45
2023/09/02 05:45:37;;;;;;;7.60;5.95;;;11.40;91.70;;;;;;5053575;28;20474;-45
2023/09/02 05:48:04;;;;;;;9.15;6.95;;;11.40;91.80;;;;;;5056776;28;20033;-45
2023/09/02 05:50:31;;;;;;;9.52;7.40;;;11.40;91.80;;;;;;5065578;28;20469;-44
2023/09/02 05:52:58;;;;;;;8.85;7.28;;;11.40;91.90;;;;;;5056938;28;20043;-45
2023/09/02 05:55:27;;;;;;;9.40;6.70;;;11.50;92.00;;;;;;5045544;28;20124;-49
2023/09/02 05:57:56;;;;;;;10.13;7.97;;;11.50;92.10;;;;;;5034843;28;20021;-46
2023/09/02 06:00:26;;;;;;;9.38;7.28;;;11.50;92.10;;;;;;5050737;28;20029;-44
2023/09/02 06:02:55;;;;;;;9.25;7.60;;;11.60;92.20;;;;;;5054000;28;20333;-44
2023/09/02 06:05:22;;;;;;;8.55;7.18;;;11.70;92.30;;;;;;5060330;28;20017;-44
2023/09/02 06:07:49;;;;;;;9.52;7.43;;;11.70;92.30;;;;;;5060340;28;20458;-44
2023/09/02 06:10:15;;;;;;;10.27;7.97;;;11.80;92.50;;;;;;5055200;28;20116;-45
2023/09/02 06:12:41;;;;;;;8.82;7.15;;;11.90;92.60;;;;;;5069318;28;20145;-43
2023/09/02 06:15:08;;;;;;;8.18;6.90;;;11.90;92.70;;;;;;5050404;28;20033;-46
2023/09/02 06:17:35;;;;;;;7.85;7.05;;;11.90;92.70;;;;;;5056391;28;20036;-45
2023/09/02 06:20:01;;;;;;;11.43;8.40;;;12.00;92.80;;;;;;5045966;28;20474;-45
2023/09/02 06:22:28;;;;;;;7.47;6.43;;;12.10;92.80;;;;;;5066467;28;20051;-43
2023/09/02 06:24:55;;;;;;;8.57;6.85;;;12.20;92.90;;;;;;5069288;28;20020;-49
2023/09/02 06:27:24;;;;;;;11.10;7.63;;;12.30;93.00;;;;;;5045446;28;20033;-45
2023/09/02 06:29:49;;;;;;;8.80;7.35;;;12.40;93.10;;;;;;5063516;28;20154;-44
2023/09/02 06:32:18;;;;;;;8.48;7.68;;;12.40;93.10;;;;;;5053027;28;20102;-44
2023/09/02 06:34:44;;;;;;;7.80;6.35;;;12.50;93.10;;;;;;5061884;28;20032;-45
2023/09/02 06:37:10;;;;;;;10.07;7.15;;;12.60;93.20;;;;;;5068704;28;20508;-47
2023/09/02 06:39:36;;;;;;;8.32;6.78;;;12.70;93.30;;;;;;5070872;28;20017;-47
2023/09/02 06:42:03;;;;;;;7.97;6.88;;;12.80;93.30;;;;;;5065102;28;20053;-44
2023/09/02 06:44:31;;;;;;;7.93;5.72;;;12.80;93.40;;;;;;5052899;28;20151;-46
2023/09/02 06:47:00;;;;;;;7.32;5.97;;;12.90;93.40;;;;;;5034239;28;20034;-48
2023/09/02 06:49:26;;;;;;;8.48;5.78;;;13.00;93.40;;;;;;5066089;28;20059;-47
2023/09/02 06:51:54;;;;;;;6.60;5.20;;;13.10;93.40;;;;;;5054943;28;20712;-45
2023/09/02 06:54:22;;;;;;;8.10;5.35;;;13.20;93.50;;;;;;5039241;28;20044;-45
2023/09/02 06:56:50;;;;;;;7.63;4.85;;;13.30;93.50;;;;;;5037407;28;20042;-45
2023/09/02 06:59:17;;;;;;;6.68;5.13;;;13.40;93.50;;;;;;5050614;28;20025;-44
2023/09/02 07:01:46;;;;;;;7.18;5.97;;;13.50;93.50;;;;;;5051628;28;20022;-46
2023/09/02 07:04:11;;;;;;;8.38;5.43;;;13.60;93.50;;;;;;5052855;28;20057;-44
2023/09/02 07:06:38;;;;;;;6.88;6.05;;;13.60;93.60;;;;;;5033373;28;20025;-44
2023/09/02 07:09:06;;;;;;;8.88;5.38;;;13.70;93.60;;;;;;5049137;28;20025;-45
2023/09/02 07:11:33;;;;;;;7.10;5.55;;;13.80;93.60;;;;;;5050241;28;20027;-46
2023/09/02 07:14:02;;;;;;;7.47;6.38;;;13.90;93.60;;;;;;5055231;28;20036;-44
2023/09/02 07:16:28;;;;;;;;;;;14.00;93.70;;;;;;5052110;28;20823;-47
2023/09/02 07:18:58;;;;;;;6.28;5.18;;;14.10;93.80;;;;;;5057206;28;19999;-43
2023/09/02 07:21:24;;;;;;;8.63;5.40;;;14.30;93.70;;;;;;5051117;28;20122;-48
2023/09/02 07:23:51;;;;;;;8.15;5.82;;;14.30;93.70;;;;;;5041495;28;20040;-49
2023/09/02 07:26:18;;;;;;;6.85;5.05;;;14.40;93.70;;;;;;5052115;28;20033;-43
2023/09/02 07:28:44;;;;;;;6.03;4.43;;;14.50;93.60;;;;;;5029906;28;20032;-49
2023/09/02 07:31:09;;;;;;;8.52;4.85;;;14.60;93.40;;;;;;5035837;28;20055;-48
2023/09/02 07:33:36;;;;;;;8.20;5.20;;;14.60;93.30;;;;;;5051806;28;20025;-44
2023/09/02 07:36:13;;;;;;;6.32;4.50;;;14.80;93.10;;;;;;5068065;28;20032;-45
2023/09/02 07:38:41;;;;;;;7.53;4.18;;;14.90;92.90;;;;;;5061334;28;20587;-45
2023/09/02 07:41:09;;;;;;;5.55;4.25;;;15.10;92.80;;;;;;5041587;28;20057;-44
2023/09/02 07:43:37;;;;;;;5.32;3.30;;;15.30;92.80;;;;;;5038765;28;20511;-45
2023/09/02 07:46:03;;;;;;;8.05;3.25;;;15.60;92.20;;;;;;5063693;28;20034;-44
2023/09/02 07:48:30;;;;;;;7.53;3.08;;;15.90;92.00;;;;;;5033346;28;20061;-45
2023/09/02 07:50:57;;;;;;;5.47;3.05;;;16.30;91.90;;;;;;5037776;28;20053;-45
2023/09/02 07:53:25;;;;;;;4.45;2.38;;;16.60;90.80;;;;;;5031303;28;20039;-47
2023/09/02 07:55:52;;;;;;;7.45;2.72;;;17.10;90.50;;;;;;5031716;28;20029;-48
2023/09/02 07:58:22;;;;;;;5.05;2.50;;;17.40;88.40;;;;;;5051447;28;20545;-46
2023/09/02 08:00:50;;;;;;;5.57;2.60;;;17.70;87.40;;;;;;5061211;28;20120;-47
2023/09/02 08:03:17;;;;;;;5.40;1.95;;;18.00;86.10;;;;;;5069701;28;20094;-48
2023/09/02 08:05:44;;;;;;;4.45;1.58;;;18.30;83.60;;;;;;5051650;28;20033;-50
2023/09/02 08:08:14;;;;;;;4.65;2.13;;;18.30;82.60;;;;;;5066127;28;20033;-49
2023/09/02 08:10:40;;;;;;;5.03;1.55;;;18.50;80.80;;;;;;5069475;28;20028;-51
2023/09/02 08:13:07;;;;;;;2.88;1.13;;;18.70;80.60;;;;;;5054491;28;20025;-49
2023/09/02 08:15:35;;;;;;;2.78;1.55;;;18.90;79.00;;;;;;5042514;28;20033;-50
2023/09/02 08:18:06;;;;;;;3.97;1.17;;;19.00;79.00;;;;;;5070812;28;20036;-48
2023/09/02 08:20:33;;;;;;;3.67;0.90;;;19.30;77.30;;;;;;5049443;28;20044;-49
2023/09/02 08:23:03;;;;;;;3.97;1.33;;;19.70;79.40;;;;;;5057068;28;20422;-51
2023/09/02 08:25:28;;;;;;;3.38;0.98;;;20.20;79.90;;;;;;5030649;28;20351;-51
2023/09/02 08:27:58;;;;;;;2.28;1.23;;;20.40;76.00;;;;;;5057224;28;20083;-54
2023/09/02 08:30:27;;;;;;;2.65;1.00;;;20.70;76.00;;;;;;5043954;28;20059;-50
2023/09/02 08:32:55;;;;;;;2.75;1.25;;;20.80;73.40;;;;;;5066474;28;20063;-51
2023/09/02 08:35:21;;;;;;;1.83;0.90;;;21.00;75.20;;;;;;5053019;28;20024;-52
2023/09/02 08:37:51;;;;;;;2.97;1.30;;;21.10;73.10;;;;;;5070462;28;20480;-48
2023/09/02 08:40:18;;;;;;;2.60;1.15;;;21.20;73.10;;;;;;5048082;28;20539;-51
2023/09/02 08:42:44;;;;;;;2.38;0.85;;;21.30;72.50;;;;;;5046166;28;20037;-48
2023/09/02 08:45:17;;;;;;;3.17;0.95;;;21.30;71.80;;;;;;5066475;28;20134;-52
2023/09/02 08:47:49;;;;;;;3.13;1.17;;;21.60;72.90;;;;;;5049820;28;20462;-50
2023/09/02 08:50:17;;;;;;;2.42;1.05;;;21.70;69.70;;;;;;5048121;28;20095;-50
2023/09/02 08:52:44;;;;;;;3.83;1.60;;;21.80;69.80;;;;;;5036253;28;20380;-52
2023/09/02 08:55:13;;;;;;;1.55;0.70;;;21.80;69.10;;;;;;5060753;28;20048;-51
2023/09/02 08:57:41;;;;;;;2.35;0.98;;;21.60;67.70;;;;;;5062862;28;20035;-53
2023/09/02 09:00:07;;;;;;;4.00;1.20;;;21.60;68.30;;;;;;5036446;28;20053;-51
2023/09/02 09:02:38;;;;;;;3.80;0.80;;;21.70;68.20;;;;;;5069169;28;20166;-52
2023/09/02 09:05:06;;;;;;;4.30;1.25;;;21.80;68.40;;;;;;5034337;28;20040;-51
2023/09/02 09:07:36;;;;;;;2.40;1.25;;;21.90;68.60;;;;;;5062267;28;20052;-52
2023/09/02 09:10:13;;;;;;;2.10;1.13;;;22.10;66.40;;;;;;5053260;28;20033;-53
2023/09/02 09:12:44;;;;;;;3.13;1.00;;;22.10;67.00;;;;;;5063631;28;20024;-51
2023/09/02 09:15:14;;;;;;;4.97;1.50;;;21.90;64.30;;;;;;5059473;28;20033;-51
2023/09/02 09:17:40;;;;;;;3.00;1.10;;;21.90;64.80;;;;;;5022307;28;20051;-51
2023/09/02 09:20:11;;;;;;;4.97;1.25;;;21.90;67.90;;;;;;5035662;28;20021;-53
2023/09/02 09:22:40;;;;;;;4.60;1.95;;;22.00;64.60;;;;;;5055655;28;20040;-51
2023/09/02 09:25:07;;;;;;;5.47;1.38;;;21.90;65.50;;;;;;5016205;28;20071;-54
2023/09/02 09:27:34;;;;;;;2.90;1.30;;;21.90;66.70;;;;;;5058140;28;20107;-51
2023/09/02 09:30:01;;;;;;;3.10;1.40;;;21.80;65.80;;;;;;5065832;28;20013;-51
2023/09/02 09:32:28;;;;;;;3.45;1.42;;;21.50;65.70;;;;;;5057830;28;20131;-49
2023/09/02 09:34:55;;;;;;;2.95;1.25;;;21.10;66.90;;;;;;5042291;28;20335;-52
2023/09/02 09:37:22;;;;;;;6.00;1.50;;;21.00;70.00;;;;;;5042972;28;20513;-51
2023/09/02 09:39:51;;;;;;;3.17;1.60;;;21.10;71.00;;;;;;5016780;28;20473;-53
2023/09/02 09:42:35;;;;;;;2.88;1.70;;;21.50;69.60;;;;;;5046567;28;20055;-49
2023/09/02 09:45:03;;;;;;;3.95;1.88;;;21.90;69.10;;;;;;5027593;28;20041;-55
2023/09/02 09:47:31;;;;;;;6.57;2.13;;;22.30;68.00;;;;;;5027500;28;20045;-49
2023/09/02 09:50:13;;;;;;;3.90;1.83;;;22.30;63.80;;;;;;5033687;28;20418;-56
2023/09/02 09:52:39;;;;;;;6.97;2.22;;;22.60;66.20;;;;;;5041656;28;20071;-53
2023/09/02 09:55:21;;;;;;;3.97;2.15;;;22.70;64.70;;;;;;5041383;28;20056;-50
2023/09/02 09:57:58;;;;;;;4.40;2.08;;;22.90;64.10;;;;;;5023092;28;20442;-55
2023/09/02 10:00:29;;;;;;;5.15;2.75;;;23.20;61.80;;;;;;5013635;28;20378;-56
2023/09/02 10:02:57;;;;;;;4.68;2.60;;;23.10;59.70;;;;;;5000527;28;20522;-53
2023/09/02 10:05:30;;;;;;;4.13;2.77;;;23.00;59.70;;;;;;5012862;28;20033;-54
2023/09/02 10:08:03;;;;;;;4.50;2.13;;;22.40;61.40;;;;;;4996428;28;20045;-54
2023/09/02 10:10:40;;;;;;;4.30;1.90;;;21.90;64.00;;;;;;5014746;28;20025;-55
2023/09/02 10:13:07;;;;;;;6.30;2.30;;;21.60;65.80;;;;;;5016343;28;20029;-56
2023/09/02 10:15:36;;;;;;;6.28;2.63;;;21.50;64.60;;;;;;5034071;28;20044;-49
2023/09/02 10:18:04;;;;;;;4.45;2.28;;;21.80;64.20;;;;;;5033868;28;20030;-53
2023/09/02 10:20:32;;;;;;;5.97;1.92;;;21.90;64.50;;;;;;5015458;28;20029;-51
2023/09/02 10:23:03;;;;;;;4.07;1.27;;;22.20;65.40;;;;;;5033926;28;20052;-52
2023/09/02 10:25:47;;;;;;;3.58;1.35;;;22.10;69.00;;;;;;5016443;28;20025;-52
2023/09/02 10:28:38;;;;;;;4.10;1.83;;;21.90;68.20;;;;;;5034873;28;20249;-54
2023/09/02 10:31:27;;;;;;;4.65;1.20;;;22.20;69.90;;;;;;5021430;28;20040;-56
2023/09/02 10:34:27;;;;;;;3.25;1.25;;;22.10;68.60;;;;;;5019316;28;20033;-54
2023/09/02 10:36:59;;;;;;;4.47;1.60;;;21.90;68.70;;;;;;5016693;28;20038;-54
2023/09/02 10:39:40;;;;;;;4.93;1.20;;;22.00;70.70;;;;;;5016292;28;20506;-54
2023/09/02 10:42:09;;;;;;;2.22;1.10;;;21.80;68.60;;;;;;5015945;28;20062;-51
2023/09/02 10:44:38;;;;;;;3.07;1.33;;;21.50;69.50;;;;;;4999101;28;20041;-52
2023/09/02 10:47:04;;;;;;;5.03;1.20;;;21.10;69.90;;;;;;5033101;28;20441;-51
2023/09/02 10:49:32;;;;;;;3.50;0.95;;;21.00;70.30;;;;;;5043630;28;20029;-52
2023/09/02 10:52:01;;;;;;;3.58;1.00;;;21.20;73.60;;;;;;5036047;28;20485;-52
2023/09/02 10:55:08;;;;;;;5.63;1.20;;;21.60;74.30;;;;;;5052485;28;20442;-52
2023/09/02 10:57:55;;;;;;;2.85;1.20;;;21.70;68.00;;;;;;5026333;28;20437;-54
2023/09/02 11:00:25;;;;;;;4.60;1.23;;;21.50;68.90;;;;;;5029292;28;20038;-52
2023/09/02 11:03:06;;;;;;;4.25;1.30;;;21.40;67.60;;;;;;5025452;28;20029;-52
2023/09/02 11:06:06;;;;;;;2.92;1.20;;;21.80;72.30;;;;;;5014938;28;20451;-53
2023/09/02 11:09:05;;;;;;;5.63;1.27;;;21.90;71.40;;;;;;5017503;28;20387;-55
2023/09/02 11:11:51;;;;;;;;;;;22.00;67.90;;;;;;5032629;28;20606;-52
2023/09/02 11:14:35;;;;;;;3.35;1.20;;;22.30;70.00;;;;;;5032357;28;19924;-54
2023/09/02 11:17:31;;;;;;;3.60;1.30;;;22.20;65.40;;;;;;5032456;28;20040;-54
2023/09/02 11:20:03;;;;;;;3.83;0.90;;;21.80;65.80;;;;;;5032127;28;20100;-56
2023/09/02 11:23:04;;;;;;;3.83;1.27;;;21.70;67.80;;;;;;5013834;28;20415;-52
2023/09/02 11:25:39;;;;;;;3.00;1.20;;;21.60;67.80;;;;;;5041781;28;20044;-54
2023/09/02 11:28:06;;;;;;;2.58;1.00;;;21.70;70.60;;;;;;5048685;28;20040;-56
2023/09/02 11:30:43;;;;;;;2.70;1.23;;;22.10;72.50;;;;;;5032836;28;20025;-56
2023/09/02 11:33:11;;;;;;;4.75;1.77;;;22.40;69.60;;;;;;5031428;28;20109;-52
2023/09/02 11:35:38;;;;;;;2.80;1.15;;;22.30;68.10;;;;;;5032795;28;20096;-54
2023/09/02 11:38:21;;;;;;;1.83;0.90;;;22.00;68.20;;;;;;5031297;28;20030;-55
2023/09/02 11:40:48;;;;;;;5.15;1.40;;;21.90;68.10;;;;;;5022761;28;20050;-54
2023/09/02 11:43:19;;;;;;;2.53;1.00;;;21.60;68.90;;;;;;5031383;28;20037;-53
2023/09/02 11:45:49;;;;;;;2.33;1.08;;;21.10;68.50;;;;;;5041782;28;20048;-54
2023/09/02 11:48:17;;;;;;;2.95;0.93;;;21.10;70.90;;;;;;5050976;28;20017;-53
2023/09/02 11:50:44;;;;;;;2.80;1.08;;;21.20;71.60;;;;;;5033882;28;20025;-53
2023/09/02 11:53:11;;;;;;;3.40;1.40;;;21.10;70.20;;;;;;5051716;28;20083;-53
2023/09/02 11:55:41;;;;;;;2.97;1.63;;;21.10;71.10;;;;;;5015363;28;20395;-53
2023/09/02 11:58:10;;;;;;;3.40;1.50;;;20.70;69.40;;;;;;5031402;28;20029;-55
2023/09/02 12:00:46;;;;;;;6.53;1.50;;;20.40;70.60;;;;;;5037001;28;20025;-55
2023/09/02 12:03:34;;;;;;;4.38;1.98;;;20.40;70.30;;;;;;5051183;28;20453;-54
2023/09/02 12:06:05;;;;;;;4.88;2.05;;;20.20;70.90;;;;;;5049581;28;20032;-52
2023/09/02 12:08:34;;;;;;;2.50;1.20;;;20.10;70.60;;;;;;5014407;28;20359;-55
2023/09/02 12:11:07;;;;;;;5.10;1.38;;;19.80;71.20;;;;;;5030439;28;20049;-54
2023/09/02 12:13:39;;;;;;;3.17;1.30;;;19.70;71.00;;;;;;5031363;28;20025;-56
2023/09/02 12:16:06;;;;;;;4.85;1.45;;;19.80;72.10;;;;;;5050745;28;20029;-55
2023/09/02 12:18:31;;;;;;;3.05;1.23;;;20.00;71.50;;;;;;5050987;28;20370;-54
2023/09/02 12:20:58;;;;;;;4.32;2.05;;;20.00;71.00;;;;;;5033207;28;20040;-56
2023/09/02 12:23:25;;;;;;;4.82;1.90;;;20.30;71.00;;;;;;5031834;28;20039;-53
2023/09/02 12:26:22;;;;;;;3.75;1.17;;;20.40;69.90;;;;;;5031080;28;20022;-54
2023/09/02 12:28:49;;;;;;;3.03;1.17;;;20.60;70.70;;;;;;5018258;28;20075;-52
2023/09/02 12:31:17;;;;;;;4.57;1.20;;;20.70;69.90;;;;;;5030594;28;20028;-56
2023/09/02 12:33:50;;;;;;;2.13;0.90;;;20.70;66.90;;;;;;5012652;28;20037;-52
2023/09/02 12:36:18;;;;;;;1.95;1.00;;;20.80;67.10;;;;;;5013685;28;20123;-52
2023/09/02 12:38:49;;;;;;;6.32;1.42;;;20.80;66.00;;;;;;5030916;28;20176;-53
2023/09/02 12:41:21;;;;;;;3.08;1.25;;;20.70;66.50;;;;;;5013901;28;20474;-51
2023/09/02 12:43:47;;;;;;;1.48;0.73;;;20.70;68.60;;;;;;5018631;28;20106;-51
2023/09/02 12:46:19;;;;;;;3.15;1.13;;;20.70;67.10;;;;;;5016684;28;20131;-53
2023/09/02 12:48:49;;;;;;;3.05;1.08;;;20.80;65.60;;;;;;5017015;28;20619;-52
2023/09/02 12:51:27;;;;;;;3.28;1.25;;;20.80;66.80;;;;;;5043652;28;20021;-56
2023/09/02 12:54:10;;;;;;;3.43;1.33;;;20.80;65.50;;;;;;5031305;28;20029;-55
2023/09/02 12:56:37;;;;;;;2.00;0.88;;;20.80;66.10;;;;;;5030894;28;20593;-54
2023/09/02 12:59:10;;;;;;;3.63;1.00;;;20.80;68.50;;;;;;5014078;28;20052;-56
2023/09/02 13:01:47;;;;;;;2.65;1.02;;;20.70;66.30;;;;;;5030687;28;20036;-54
2023/09/02 13:04:14;;;;;;;2.25;0.82;;;20.70;64.30;;;;;;5030723;28;20037;-51